LFMT/MPL METAR and TAF weather

Enter ICAO airport designator
Station Type Date Time Source
LFMT METAR 2022/01/28 00:00 UTC NOAA

LFMT 280000Z AUTO 25002KT 9000 NSC 00/M01 Q1028 NOSIG


Station Type Date Time Source
LFMT Decoded METAR 2022/01/28 00:00 UTC NOAA

Montpellier, France (LFMT) 43-35N 003-58E 6M
Jan 27, 2022 - 07:00 PM EST / 2022.01.28 0000 UTC
Wind: from the WSW (250 degrees) at 2 MPH (2 KT):0
Visibility: 5 mile(s):0
Temperature: 32 F (0 C)
Dew Point: 30 F (-1 C)
Relative Humidity: 92%
Pressure (altimeter): 30.36 in. Hg (1028 hPa)
ob: LFMT 280000Z AUTO 25002KT 9000 NSC 00/M01 Q1028 NOSIG
cycle: 0

Station Type Date Time Source
LFMT TAF 2022/01/27 21:21 UTC NOAA

TAF TAF LFMT 272000Z 2721/2821 VRB04KT CAVOK
BECMG 2809/2811 35010KT

Example: see airport list